createdAt,value
2022-09-26T00:00:13.335Z,7.50
2022-09-26T00:01:13.393Z,6.00
2022-09-26T00:02:13.389Z,5.80
2022-09-26T00:03:13.314Z,5.20
2022-09-26T00:04:13.311Z,5.40
2022-09-26T00:05:13.305Z,6.20
2022-09-26T00:06:13.294Z,4.80
2022-09-26T00:07:13.286Z,6.80
2022-09-26T00:08:13.296Z,6.60
2022-09-26T00:09:13.387Z,5.60
2022-09-26T00:10:13.267Z,6.60
2022-09-26T00:11:13.264Z,6.40
2022-09-26T00:12:13.255Z,5.60
2022-09-26T00:13:13.245Z,6.10
2022-09-26T00:14:13.244Z,5.30
2022-09-26T00:15:13.234Z,6.30
2022-09-26T00:16:13.343Z,7.30
2022-09-26T00:17:13.260Z,7.20
2022-09-26T00:18:13.213Z,8.20
2022-09-26T00:19:13.316Z,7.40
2022-09-26T00:20:13.206Z,6.40
2022-09-26T00:21:13.195Z,7.10
2022-09-26T00:22:13.194Z,6.70
2022-09-26T00:23:13.179Z,5.10
2022-09-26T00:24:13.246Z,6.40
2022-09-26T00:25:13.167Z,6.00
2022-09-26T00:26:13.161Z,6.50
2022-09-26T00:27:13.153Z,6.00
2022-09-26T00:28:13.164Z,5.90
2022-09-26T00:29:13.198Z,6.20
2022-09-26T00:30:13.143Z,6.20
2022-09-26T00:31:13.166Z,6.60
2022-09-26T00:32:13.117Z,7.10
2022-09-26T00:33:13.118Z,7.40
2022-09-26T00:34:13.107Z,5.90
2022-09-26T00:35:13.099Z,6.30
2022-09-26T00:36:13.095Z,7.30
2022-09-26T00:37:13.084Z,7.10
2022-09-26T00:38:13.081Z,6.70
2022-09-26T00:39:13.132Z,8.80
2022-09-26T00:40:13.169Z,6.80
2022-09-26T00:41:13.067Z,6.50
2022-09-26T00:42:13.062Z,5.80
2022-09-26T00:43:13.048Z,7.30
2022-09-26T00:44:13.040Z,6.70
2022-09-26T00:45:13.032Z,8.20
2022-09-26T00:46:13.076Z,10.20
2022-09-26T00:47:13.017Z,8.60
2022-09-26T00:48:13.013Z,7.40
2022-09-26T00:49:13.065Z,8.60
2022-09-26T00:50:13.001Z,6.20
2022-09-26T00:51:12.991Z,7.10
2022-09-26T00:52:12.984Z,7.30
2022-09-26T00:53:12.977Z,5.70
2022-09-26T00:54:12.970Z,9.90
2022-09-26T00:55:12.962Z,8.20
2022-09-26T00:56:12.962Z,7.90
2022-09-26T00:57:12.950Z,7.40
2022-09-26T00:58:12.944Z,6.80
2022-09-26T00:59:12.964Z,7.80
2022-09-26T01:00:12.930Z,9.70
2022-09-26T01:01:13.014Z,8.80
2022-09-26T01:02:13.132Z,9.90
2022-09-26T01:03:12.911Z,9.60
2022-09-26T01:04:12.902Z,7.30
2022-09-26T01:05:12.904Z,7.90
2022-09-26T01:06:12.888Z,8.90
2022-09-26T01:07:12.881Z,8.60
2022-09-26T01:08:12.874Z,12.10
2022-09-26T01:09:12.964Z,9.00
2022-09-26T01:10:12.859Z,9.70
2022-09-26T01:11:16.767Z,11.30
2022-09-26T01:12:12.918Z,8.50
2022-09-26T01:13:12.844Z,7.20
2022-09-26T01:14:12.833Z,8.30
2022-09-26T01:15:12.826Z,7.50
2022-09-26T01:16:12.849Z,8.50
2022-09-26T01:17:12.812Z,8.50
2022-09-26T01:18:12.808Z,8.10
2022-09-26T01:19:12.857Z,7.10
2022-09-26T01:20:12.792Z,8.60
2022-09-26T01:21:12.784Z,6.80
2022-09-26T01:22:12.776Z,9.10
2022-09-26T01:23:12.778Z,10.10
2022-09-26T01:24:12.766Z,7.30
2022-09-26T01:25:12.756Z,8.80
2022-09-26T01:26:12.790Z,7.80
2022-09-26T01:27:12.746Z,7.90
2022-09-26T01:28:12.736Z,10.70
2022-09-26T01:29:12.847Z,11.90
2022-09-26T01:30:12.725Z,9.90
2022-09-26T01:31:12.820Z,8.90
2022-09-26T01:32:12.708Z,9.10
2022-09-26T01:33:12.726Z,8.60
2022-09-26T01:34:12.694Z,8.80
2022-09-26T01:35:12.693Z,9.80
2022-09-26T01:36:12.683Z,9.80
2022-09-26T01:37:12.671Z,9.20
2022-09-26T01:38:12.665Z,9.00
2022-09-26T01:39:12.710Z,12.10
2022-09-26T01:40:12.719Z,7.60
2022-09-26T01:41:12.646Z,9.50
2022-09-26T01:42:12.638Z,8.90
2022-09-26T01:43:12.633Z,9.10
2022-09-26T01:44:12.622Z,10.10
2022-09-26T01:45:12.614Z,7.60
2022-09-26T01:46:12.687Z,9.60
2022-09-26T01:47:12.605Z,10.20
2022-09-26T01:48:12.596Z,8.90
2022-09-26T01:49:19.749Z,8.00
2022-09-26T01:51:16.591Z,7.50
2022-09-26T01:52:16.576Z,9.60
2022-09-26T01:54:20.558Z,8.40
2022-09-26T01:55:20.548Z,8.80
2022-09-26T01:57:24.551Z,7.20
2022-09-26T01:58:24.536Z,8.80
2022-09-26T02:00:17.442Z,7.40
2022-09-26T02:01:17.490Z,7.20
2022-09-26T02:03:21.422Z,7.30
2022-09-26T02:04:21.408Z,7.40
2022-09-26T02:06:14.529Z,8.80
2022-09-26T02:07:14.511Z,8.40
2022-09-26T02:09:18.517Z,9.40
2022-09-26T02:10:18.506Z,9.90
2022-09-26T02:12:22.500Z,11.00
2022-09-26T02:13:22.514Z,9.60
2022-09-26T02:15:26.469Z,8.30
2022-09-26T02:16:26.523Z,8.20
2022-09-26T02:18:30.451Z,8.20
2022-09-26T02:19:30.433Z,8.90
2022-09-26T02:21:34.419Z,9.00
2022-09-26T02:22:34.405Z,10.00
2022-09-26T02:24:38.412Z,9.80
2022-09-26T02:25:38.401Z,7.90
2022-09-26T02:27:42.387Z,9.50
2022-09-26T02:28:42.375Z,11.00
2022-09-26T02:30:35.272Z,7.50
2022-09-26T02:31:35.288Z,9.00
2022-09-26T02:33:28.367Z,9.40
2022-09-26T02:34:28.350Z,7.90
2022-09-26T02:36:32.335Z,9.20
2022-09-26T02:37:32.315Z,8.20
2022-09-26T02:39:25.609Z,9.60
2022-09-26T02:40:25.749Z,8.50
2022-09-26T02:42:18.703Z,6.30
2022-09-26T02:43:18.701Z,7.90
2022-09-26T02:45:22.657Z,6.40
2022-09-26T02:46:22.721Z,9.60
2022-09-26T02:48:26.633Z,8.60
2022-09-26T02:49:26.619Z,11.70
2022-09-26T02:51:30.600Z,7.70
2022-09-26T02:52:30.584Z,7.60
2022-09-26T02:54:23.683Z,8.00
2022-09-26T02:55:23.672Z,8.90
2022-09-26T02:57:27.651Z,6.60
2022-09-26T02:58:27.630Z,8.50
2022-09-26T03:00:20.537Z,7.90
2022-09-26T03:01:20.570Z,8.80
2022-09-26T03:03:24.557Z,9.30
2022-09-26T03:04:24.548Z,7.70
2022-09-26T03:06:28.486Z,8.70
2022-09-26T03:07:28.470Z,8.30
2022-09-26T03:09:32.451Z,8.30
2022-09-26T03:10:32.436Z,8.90
2022-09-26T03:12:36.432Z,8.80
2022-09-26T03:13:36.412Z,9.10
2022-09-26T03:15:40.439Z,8.50
2022-09-26T03:16:40.466Z,7.30
2022-09-26T03:18:44.433Z,11.40
2022-09-26T03:19:44.417Z,9.00
2022-09-26T03:21:48.395Z,9.20
2022-09-26T03:22:48.379Z,10.20
2022-09-26T03:24:52.362Z,8.70
2022-09-26T03:25:52.347Z,8.40
2022-09-26T03:27:45.452Z,10.30
2022-09-26T03:28:45.433Z,8.30
2022-09-26T03:30:38.358Z,9.40
2022-09-26T03:31:38.406Z,8.60
2022-09-26T03:33:42.335Z,9.70
2022-09-26T03:34:42.317Z,8.30
2022-09-26T03:36:35.638Z,9.20
2022-09-26T03:37:35.596Z,8.90
2022-09-26T03:39:39.568Z,9.40
2022-09-26T03:40:39.629Z,11.30
2022-09-26T03:42:43.563Z,9.10
2022-09-26T03:43:43.546Z,11.10
2022-09-26T03:45:47.566Z,10.50
2022-09-26T03:46:47.507Z,9.20
2022-09-26T03:48:40.620Z,8.90
2022-09-26T03:49:40.602Z,8.50
2022-09-26T03:51:44.590Z,8.00
2022-09-26T03:52:44.572Z,11.50
2022-09-26T03:54:48.543Z,10.00
2022-09-26T03:55:48.541Z,9.40
2022-09-26T03:57:52.513Z,8.00
2022-09-26T03:58:52.496Z,10.90
2022-09-26T04:00:45.445Z,9.20
2022-09-26T04:01:45.456Z,11.20
2022-09-26T04:03:50.830Z,10.40
2022-09-26T04:04:49.365Z,9.80
2022-09-26T04:06:53.374Z,10.40
2022-09-26T04:07:53.358Z,11.60
2022-09-26T04:09:57.349Z,10.00
2022-09-26T04:10:57.337Z,11.50
2022-09-26T04:12:50.614Z,9.60
2022-09-26T04:13:53.001Z,10.40
2022-09-26T04:15:54.600Z,11.30
2022-09-26T04:16:54.567Z,10.60
2022-09-26T04:18:47.675Z,10.80
2022-09-26T04:19:47.656Z,10.90
2022-09-26T04:21:51.641Z,11.20
2022-09-26T04:22:51.628Z,10.90
2022-09-26T04:24:55.618Z,10.90
2022-09-26T04:25:55.607Z,8.30
2022-09-26T04:27:59.591Z,8.20
2022-09-26T04:28:59.572Z,10.20
2022-09-26T04:30:52.667Z,9.30
2022-09-26T04:31:52.701Z,8.60
2022-09-26T04:33:45.771Z,10.50
2022-09-26T04:34:45.747Z,10.60
2022-09-26T04:36:49.735Z,9.10
2022-09-26T04:37:49.717Z,7.80
2022-09-26T04:39:53.686Z,9.90
2022-09-26T04:40:53.706Z,10.30
2022-09-26T04:42:57.664Z,9.90
2022-09-26T04:43:57.643Z,9.30
2022-09-26T04:46:01.705Z,10.10
2022-09-26T04:47:01.619Z,10.80
2022-09-26T04:49:05.686Z,9.70
2022-09-26T04:50:05.589Z,11.30
2022-09-26T04:52:09.583Z,10.40
2022-09-26T04:53:09.566Z,10.70
2022-09-26T04:55:02.663Z,10.60
2022-09-26T04:56:02.659Z,12.00
2022-09-26T04:58:06.645Z,10.70
2022-09-26T04:59:06.679Z,12.40
2022-09-26T05:01:10.777Z,10.60
2022-09-26T05:02:10.622Z,10.90
2022-09-26T05:04:14.563Z,11.40
2022-09-26T05:05:14.548Z,12.70
2022-09-26T05:07:18.538Z,13.20
2022-09-26T05:08:18.516Z,14.80
2022-09-26T05:10:11.433Z,10.40
2022-09-26T05:11:11.418Z,11.20
2022-09-26T05:13:04.616Z,13.60
2022-09-26T05:14:04.597Z,12.60
2022-09-26T05:15:57.741Z,13.60
2022-09-26T05:16:57.688Z,13.60
2022-09-26T05:18:50.785Z,13.00
2022-09-26T05:19:50.774Z,14.90
2022-09-26T05:21:54.759Z,13.50
2022-09-26T05:22:54.741Z,15.00
2022-09-26T05:24:58.708Z,10.50
2022-09-26T05:25:58.748Z,11.20
2022-09-26T05:28:02.683Z,13.20
2022-09-26T05:29:07.617Z,12.40
2022-09-26T05:31:06.717Z,10.20
2022-09-26T05:32:06.693Z,12.50
2022-09-26T05:34:00.219Z,13.60
2022-09-26T05:35:00.211Z,15.20
2022-09-26T05:36:00.201Z,12.00
2022-09-26T05:37:00.193Z,11.50
2022-09-26T05:38:00.185Z,13.30
2022-09-26T05:39:00.175Z,13.70
2022-09-26T05:40:00.184Z,12.70
2022-09-26T05:41:00.194Z,11.30
2022-09-26T05:42:00.152Z,11.20
2022-09-26T05:43:00.210Z,13.30
2022-09-26T05:44:00.141Z,13.40
2022-09-26T05:45:00.136Z,12.90
2022-09-26T05:46:00.143Z,14.60
2022-09-26T05:47:00.150Z,10.30
2022-09-26T05:48:00.108Z,12.80
2022-09-26T05:49:00.103Z,11.00
2022-09-26T05:50:00.117Z,9.50
2022-09-26T05:51:00.088Z,9.10
2022-09-26T05:52:00.083Z,12.50
2022-09-26T05:53:00.085Z,9.60
2022-09-26T05:54:00.066Z,15.90
2022-09-26T05:55:00.061Z,17.80
2022-09-26T05:56:00.052Z,18.70
2022-09-26T05:57:00.045Z,18.30
2022-09-26T05:58:00.037Z,16.80
2022-09-26T05:59:00.038Z,17.60
2022-09-26T06:00:00.028Z,13.90
2022-09-26T06:01:00.093Z,17.10
2022-09-26T06:02:00.048Z,16.40
2022-09-26T06:03:00.005Z,15.10
2022-09-26T06:03:59.997Z,15.90
2022-09-26T06:04:59.984Z,15.30
2022-09-26T06:05:59.982Z,15.30
2022-09-26T06:06:59.976Z,12.90
2022-09-26T06:07:59.974Z,11.80
2022-09-26T06:08:59.962Z,10.60
2022-09-26T06:09:59.953Z,9.70
2022-09-26T06:10:59.949Z,11.60
2022-09-26T06:11:59.942Z,11.40
2022-09-26T06:12:59.936Z,9.90
2022-09-26T06:13:59.929Z,8.80
2022-09-26T06:14:59.922Z,9.90
2022-09-26T06:15:59.947Z,9.40
2022-09-26T06:16:59.910Z,9.80
2022-09-26T06:17:59.901Z,9.20
2022-09-26T06:18:59.897Z,9.30
2022-09-26T06:19:59.889Z,7.70
2022-09-26T06:20:59.884Z,8.70
2022-09-26T06:21:59.878Z,7.30
2022-09-26T06:22:59.875Z,11.50
2022-09-26T06:23:59.866Z,9.50
2022-09-26T06:24:59.860Z,9.50
2022-09-26T06:25:59.850Z,7.50
2022-09-26T06:26:59.845Z,8.40
2022-09-26T06:28:00.433Z,10.10
2022-09-26T06:28:59.838Z,10.30
2022-09-26T06:29:59.827Z,8.20
2022-09-26T06:30:59.820Z,8.10
2022-09-26T06:31:59.892Z,8.00
2022-09-26T06:32:59.810Z,10.90
2022-09-26T06:33:59.822Z,10.70
2022-09-26T06:34:59.797Z,8.40
2022-09-26T06:35:59.793Z,8.00
2022-09-26T06:36:59.787Z,10.20
2022-09-26T06:37:59.782Z,9.70
2022-09-26T06:38:59.774Z,7.70
2022-09-26T06:39:59.770Z,9.30
2022-09-26T06:40:59.890Z,10.60
2022-09-26T06:41:59.759Z,10.30
2022-09-26T06:42:59.751Z,8.90
2022-09-26T06:43:59.748Z,9.30
2022-09-26T06:44:59.742Z,8.70
2022-09-26T06:45:59.737Z,8.40
2022-09-26T06:46:59.796Z,6.30
2022-09-26T06:47:59.723Z,8.20
2022-09-26T06:48:59.723Z,8.20
2022-09-26T06:49:59.711Z,7.40
2022-09-26T06:50:59.708Z,9.10
2022-09-26T06:51:59.701Z,9.40
2022-09-26T06:53:02.941Z,13.50
2022-09-26T06:53:59.689Z,9.60
2022-09-26T06:54:59.683Z,10.80
2022-09-26T06:55:59.678Z,9.80
2022-09-26T06:56:59.673Z,12.10
2022-09-26T06:57:59.666Z,9.60
2022-09-26T06:58:59.660Z,9.10
2022-09-26T06:59:59.655Z,10.60
2022-09-26T07:00:59.912Z,8.60
2022-09-26T07:02:00.012Z,8.30
2022-09-26T07:02:59.636Z,8.60
2022-09-26T07:03:59.629Z,6.80
2022-09-26T07:04:59.625Z,9.10
2022-09-26T07:05:59.618Z,8.90
2022-09-26T07:06:59.616Z,8.10
2022-09-26T07:07:59.607Z,12.70
2022-09-26T07:09:12.301Z,10.80
2022-09-26T07:09:59.596Z,9.70
2022-09-26T07:11:11.104Z,7.60
2022-09-26T07:12:15.740Z,7.70
2022-09-26T07:12:59.577Z,7.80
2022-09-26T07:13:59.572Z,7.80
2022-09-26T07:14:59.564Z,13.70
2022-09-26T07:15:59.638Z,9.90
2022-09-26T07:16:59.552Z,8.90
2022-09-26T07:17:59.642Z,7.80
2022-09-26T07:18:59.544Z,8.90
2022-09-26T07:19:59.590Z,7.90
2022-09-26T07:20:59.533Z,7.90
2022-09-26T07:21:59.528Z,8.00
2022-09-26T07:22:59.518Z,9.30
2022-09-26T07:23:59.509Z,8.30
2022-09-26T07:24:59.506Z,7.40
2022-09-26T07:25:59.499Z,8.90
2022-09-26T07:26:59.495Z,7.40
2022-09-26T07:27:59.493Z,7.90
2022-09-26T07:28:59.484Z,8.20
2022-09-26T07:29:59.477Z,8.40
2022-09-26T07:30:59.528Z,8.60
2022-09-26T07:31:59.540Z,7.80
2022-09-26T07:32:59.460Z,9.30
2022-09-26T07:33:59.454Z,9.30
2022-09-26T07:34:59.448Z,10.60
2022-09-26T07:36:04.440Z,10.70
2022-09-26T07:36:59.667Z,9.00
2022-09-26T07:37:59.431Z,7.80
2022-09-26T07:38:59.424Z,10.70
2022-09-26T07:40:01.587Z,9.30
2022-09-26T07:40:59.508Z,8.20
2022-09-26T07:41:59.405Z,7.70
2022-09-26T07:43:18.435Z,7.70
2022-09-26T07:45:24.301Z,7.00
2022-09-26T07:45:59.383Z,7.30
2022-09-26T07:46:59.437Z,9.50
2022-09-26T07:47:59.373Z,7.10
2022-09-26T07:48:59.366Z,7.60
2022-09-26T07:49:59.359Z,7.80
2022-09-26T07:50:59.355Z,7.00
2022-09-26T07:51:59.350Z,7.50
2022-09-26T07:52:59.344Z,6.70
2022-09-26T07:53:59.335Z,7.10
2022-09-26T07:54:59.332Z,7.00
2022-09-26T07:55:59.327Z,6.70
2022-09-26T07:56:59.321Z,6.90
2022-09-26T07:57:59.325Z,6.70
2022-09-26T07:58:59.310Z,6.60
2022-09-26T07:59:59.303Z,6.30
2022-09-26T08:00:59.299Z,5.50
2022-09-26T08:01:59.325Z,7.60
2022-09-26T08:02:59.338Z,6.80
2022-09-26T08:03:59.281Z,7.60
2022-09-26T08:05:01.242Z,5.50
2022-09-26T08:05:59.267Z,6.60
2022-09-26T08:06:59.264Z,3.50
2022-09-26T08:07:59.257Z,5.00
2022-09-26T08:08:59.256Z,6.90
2022-09-26T08:09:59.247Z,3.80
2022-09-26T08:11:03.728Z,4.60
2022-09-26T08:11:59.234Z,5.40
2022-09-26T08:12:59.231Z,4.20
2022-09-26T08:13:59.223Z,4.40
2022-09-26T08:14:59.219Z,5.70
2022-09-26T08:15:59.238Z,4.50
2022-09-26T08:16:59.208Z,4.90
2022-09-26T08:17:59.199Z,4.20
2022-09-26T08:18:59.195Z,4.90
2022-09-26T08:19:59.189Z,6.30
2022-09-26T08:20:59.184Z,4.20
2022-09-26T08:21:59.277Z,3.60
2022-09-26T08:22:59.176Z,4.50
2022-09-26T08:23:59.169Z,4.50
2022-09-26T08:24:59.162Z,4.80
2022-09-26T08:25:59.156Z,5.60
2022-09-26T08:26:59.150Z,5.50
2022-09-26T08:27:59.151Z,5.80
2022-09-26T08:28:59.140Z,6.60
2022-09-26T08:29:59.133Z,5.60
2022-09-26T08:30:59.154Z,5.10
2022-09-26T08:31:59.125Z,5.00
2022-09-26T08:32:59.121Z,4.30
2022-09-26T08:33:59.111Z,4.10
2022-09-26T08:34:59.108Z,5.40
2022-09-26T08:35:59.100Z,3.70
2022-09-26T08:36:59.096Z,3.80
2022-09-26T08:37:59.089Z,4.30
2022-09-26T08:38:59.084Z,4.00
2022-09-26T08:39:59.079Z,2.90
2022-09-26T08:40:59.106Z,4.70
2022-09-26T08:41:59.067Z,3.00
2022-09-26T08:42:59.063Z,4.30
2022-09-26T08:43:59.057Z,4.30
2022-09-26T08:44:59.053Z,3.40
2022-09-26T08:45:59.046Z,3.40
2022-09-26T08:46:59.084Z,4.60
2022-09-26T08:47:59.038Z,4.30
2022-09-26T08:48:59.030Z,3.90
2022-09-26T08:49:59.025Z,5.00
2022-09-26T08:50:59.019Z,4.70
2022-09-26T08:51:59.016Z,4.40
2022-09-26T08:52:59.012Z,4.30
2022-09-26T08:53:59.004Z,3.60
2022-09-26T08:54:58.998Z,3.70
2022-09-26T08:55:58.994Z,4.90
2022-09-26T08:56:58.987Z,3.40
2022-09-26T08:57:58.982Z,3.90
2022-09-26T08:58:58.979Z,3.30
2022-09-26T08:59:58.982Z,4.40
2022-09-26T09:00:58.966Z,4.90
2022-09-26T09:01:59.084Z,3.10
2022-09-26T09:02:58.978Z,3.60
2022-09-26T09:03:58.951Z,6.00
2022-09-26T09:04:58.945Z,4.50
2022-09-26T09:05:58.942Z,3.40
2022-09-26T09:06:58.935Z,3.70
2022-09-26T09:07:58.933Z,3.60
2022-09-26T09:08:58.925Z,3.50
2022-09-26T09:09:58.988Z,3.70
2022-09-26T09:10:58.914Z,2.80
2022-09-26T09:11:58.911Z,2.70
2022-09-26T09:12:58.905Z,3.70
2022-09-26T09:13:58.901Z,1.90
2022-09-26T09:15:23.580Z,2.70
2022-09-26T09:15:58.933Z,3.80
2022-09-26T09:16:58.886Z,3.00
2022-09-26T09:17:58.879Z,4.40
2022-09-26T09:18:58.874Z,3.30
2022-09-26T09:19:58.871Z,3.50
2022-09-26T09:20:58.865Z,2.80
2022-09-26T09:21:58.861Z,4.00
2022-09-26T09:22:58.862Z,4.00
2022-09-26T09:23:58.852Z,3.10
2022-09-26T09:24:58.849Z,3.80
2022-09-26T09:27:52.404Z,2.40
2022-09-26T09:28:03.973Z,3.10
2022-09-26T09:28:58.829Z,4.20
2022-09-26T09:29:58.823Z,3.00
2022-09-26T09:30:58.849Z,3.60
2022-09-26T09:31:58.814Z,2.20
2022-09-26T09:32:58.811Z,2.70
2022-09-26T09:33:58.808Z,2.90
2022-09-26T09:34:58.798Z,3.20
2022-09-26T09:35:58.794Z,2.90
2022-09-26T09:36:58.789Z,4.50
2022-09-26T09:37:58.782Z,3.10
2022-09-26T09:38:58.778Z,3.50
2022-09-26T09:39:58.774Z,3.40
2022-09-26T09:40:58.821Z,1.80
2022-09-26T09:41:58.765Z,2.90
2022-09-26T09:42:58.759Z,3.10
2022-09-26T09:43:58.755Z,3.10
2022-09-26T09:44:58.751Z,3.30
2022-09-26T09:45:58.743Z,2.80
2022-09-26T09:46:58.809Z,2.80
2022-09-26T09:47:58.734Z,1.90
2022-09-26T09:48:58.731Z,2.30
2022-09-26T09:49:58.728Z,3.50
2022-09-26T09:50:58.720Z,2.80
2022-09-26T09:51:58.719Z,2.20
2022-09-26T09:52:58.714Z,1.70
2022-09-26T09:53:58.708Z,3.10
2022-09-26T09:54:58.704Z,2.30
2022-09-26T09:55:58.699Z,2.30
2022-09-26T09:56:58.696Z,2.90
2022-09-26T09:57:58.689Z,2.60
2022-09-26T09:58:58.687Z,4.70
2022-09-26T09:59:58.679Z,3.80
2022-09-26T10:00:58.675Z,3.30
2022-09-26T10:01:58.671Z,2.20
2022-09-26T10:02:58.841Z,4.20
2022-09-26T10:03:58.661Z,5.50
2022-09-26T10:04:58.659Z,2.70
2022-09-26T10:05:58.652Z,2.00
2022-09-26T10:06:58.649Z,3.50
2022-09-26T10:07:58.644Z,2.80
2022-09-26T10:08:58.640Z,1.80
2022-09-26T10:09:58.634Z,3.00
2022-09-26T10:10:58.629Z,4.10
2022-09-26T10:11:58.628Z,4.30
2022-09-26T10:12:58.627Z,1.50
2022-09-26T10:13:58.662Z,3.70
2022-09-26T10:14:58.615Z,3.60
2022-09-26T10:15:58.644Z,3.80
2022-09-26T10:16:58.607Z,4.00
2022-09-26T10:18:22.906Z,2.40
2022-09-26T10:19:03.096Z,2.80
2022-09-26T10:19:58.588Z,2.50
2022-09-26T10:20:58.589Z,2.20
2022-09-26T10:21:58.585Z,1.60
2022-09-26T10:22:58.581Z,1.70
2022-09-26T10:23:58.579Z,2.60
2022-09-26T10:24:58.575Z,1.40
2022-09-26T10:25:58.570Z,1.90
2022-09-26T10:26:58.565Z,1.50
2022-09-26T10:27:58.563Z,2.20
2022-09-26T10:28:58.563Z,2.00
2022-09-26T10:29:58.553Z,2.60
2022-09-26T10:30:58.568Z,2.00
2022-09-26T10:31:58.549Z,2.40
2022-09-26T10:32:58.543Z,2.10
2022-09-26T10:33:58.539Z,2.20
2022-09-26T10:34:58.539Z,1.40
2022-09-26T10:35:58.532Z,4.10
2022-09-26T10:36:58.530Z,2.70
2022-09-26T10:37:58.524Z,1.90
2022-09-26T10:38:58.523Z,2.70
2022-09-26T10:39:58.517Z,1.50
2022-09-26T10:40:58.577Z,1.70
2022-09-26T10:41:58.522Z,2.00
2022-09-26T10:42:58.508Z,2.60
2022-09-26T10:43:58.507Z,1.90
2022-09-26T10:44:58.503Z,1.80
2022-09-26T10:45:58.556Z,1.80
2022-09-26T10:46:58.637Z,3.60
2022-09-26T10:47:58.490Z,2.00
2022-09-26T10:48:58.488Z,3.00
2022-09-26T10:49:58.487Z,2.00
2022-09-26T10:50:58.489Z,2.60
2022-09-26T10:52:01.008Z,2.60
2022-09-26T10:52:58.473Z,2.50
2022-09-26T10:53:58.469Z,3.50
2022-09-26T10:54:58.475Z,3.40
2022-09-26T10:55:58.461Z,2.90
2022-09-26T10:56:58.458Z,3.20
2022-09-26T10:57:58.458Z,2.90
2022-09-26T10:58:58.451Z,4.10
2022-09-26T10:59:58.445Z,3.50
2022-09-26T11:00:58.441Z,3.80
2022-09-26T11:01:58.483Z,3.20
2022-09-26T11:02:58.435Z,2.50
2022-09-26T11:03:58.498Z,2.70
2022-09-26T11:04:58.426Z,3.60
2022-09-26T11:05:58.431Z,2.60
2022-09-26T11:06:58.417Z,3.60
2022-09-26T11:07:58.416Z,2.90
2022-09-26T11:08:58.427Z,3.00
2022-09-26T11:09:58.407Z,2.20
2022-09-26T11:10:58.407Z,2.80
2022-09-26T11:11:58.399Z,2.40
2022-09-26T11:12:58.395Z,2.20
2022-09-26T11:13:58.391Z,4.20
2022-09-26T11:14:58.386Z,3.60
2022-09-26T11:15:58.456Z,3.90
2022-09-26T11:16:58.378Z,1.90
2022-09-26T11:17:58.374Z,3.50
2022-09-26T11:18:58.370Z,3.60
2022-09-26T11:19:58.368Z,1.90
2022-09-26T11:20:58.362Z,2.30
2022-09-26T11:21:58.362Z,2.30
2022-09-26T11:22:58.356Z,2.40
2022-09-26T11:23:58.351Z,2.40
2022-09-26T11:24:58.348Z,1.40
2022-09-26T11:25:58.430Z,2.90
2022-09-26T11:26:58.339Z,3.10
2022-09-26T11:27:58.334Z,2.20
2022-09-26T11:28:58.330Z,2.40
2022-09-26T11:29:58.326Z,2.20
2022-09-26T11:30:58.362Z,2.90
2022-09-26T11:32:00.329Z,3.10
2022-09-26T11:32:58.317Z,3.20
2022-09-26T11:33:58.316Z,2.60
2022-09-26T11:34:58.310Z,3.00
2022-09-26T11:35:58.305Z,3.10
2022-09-26T11:36:58.302Z,3.10
2022-09-26T11:37:58.298Z,2.60
2022-09-26T11:38:58.296Z,2.10
2022-09-26T11:39:58.291Z,3.20
2022-09-26T11:40:58.323Z,2.30
2022-09-26T11:41:58.282Z,2.80
2022-09-26T11:42:58.280Z,3.00
2022-09-26T11:43:58.277Z,2.10
2022-09-26T11:44:58.275Z,3.10
2022-09-26T11:45:58.323Z,3.50
2022-09-26T11:46:58.268Z,2.50
2022-09-26T11:47:58.264Z,2.30
2022-09-26T11:48:58.272Z,2.30
2022-09-26T11:49:58.257Z,2.50
2022-09-26T11:50:58.252Z,1.60
2022-09-26T11:51:58.252Z,2.60
2022-09-26T11:52:58.249Z,2.70
2022-09-26T11:53:58.242Z,1.90
2022-09-26T11:54:58.242Z,2.30
2022-09-26T11:55:58.236Z,2.90
2022-09-26T11:56:58.244Z,4.20
2022-09-26T11:57:58.227Z,3.60
2022-09-26T11:58:58.225Z,2.40
2022-09-26T11:59:58.221Z,2.60
2022-09-26T12:00:58.219Z,2.10
2022-09-26T12:01:58.215Z,3.60
2022-09-26T12:02:58.357Z,3.40
2022-09-26T12:03:58.333Z,2.90
2022-09-26T12:04:58.205Z,3.10
2022-09-26T12:05:58.201Z,2.60
2022-09-26T12:06:58.199Z,4.30
2022-09-26T12:07:58.193Z,3.10
2022-09-26T12:08:58.191Z,2.50
2022-09-26T12:09:58.185Z,3.30
2022-09-26T12:10:58.181Z,3.90
2022-09-26T12:11:58.181Z,3.10
2022-09-26T12:12:58.178Z,2.40
2022-09-26T12:13:58.176Z,2.90
2022-09-26T12:14:58.170Z,2.60
2022-09-26T12:15:58.237Z,2.40
2022-09-26T12:16:58.164Z,3.40
2022-09-26T12:17:58.162Z,3.10
2022-09-26T12:18:58.157Z,4.00
2022-09-26T12:19:58.153Z,3.00
2022-09-26T12:20:58.153Z,3.50
2022-09-26T12:21:58.146Z,2.50
2022-09-26T12:22:58.145Z,2.50
2022-09-26T12:23:58.141Z,2.60
2022-09-26T12:24:58.138Z,3.20
2022-09-26T12:25:58.134Z,2.40
2022-09-26T12:26:58.130Z,2.80
2022-09-26T12:27:58.129Z,1.50
2022-09-26T12:28:58.126Z,4.10
2022-09-26T12:29:58.122Z,2.60
2022-09-26T12:30:58.258Z,2.80
2022-09-26T12:31:58.117Z,2.80
2022-09-26T12:32:58.114Z,1.80
2022-09-26T12:33:58.109Z,3.10
2022-09-26T12:34:58.106Z,4.00
2022-09-26T12:35:58.102Z,2.30
2022-09-26T12:36:58.100Z,4.30
2022-09-26T12:37:58.098Z,3.10
2022-09-26T12:38:58.096Z,2.40
2022-09-26T12:39:58.093Z,3.10
2022-09-26T12:40:58.149Z,2.20
2022-09-26T12:41:58.083Z,5.00
2022-09-26T12:42:58.081Z,3.30
2022-09-26T12:43:58.077Z,3.60
2022-09-26T12:44:58.078Z,2.20
2022-09-26T12:45:58.181Z,2.80
2022-09-26T12:46:58.146Z,3.10
2022-09-26T12:47:58.064Z,2.80
2022-09-26T12:48:58.063Z,4.60
2022-09-26T12:49:58.061Z,4.30
2022-09-26T12:50:58.057Z,2.60
2022-09-26T12:51:58.054Z,4.40
2022-09-26T12:52:58.050Z,3.30
2022-09-26T12:53:58.046Z,2.20
2022-09-26T12:54:58.038Z,3.00
2022-09-26T12:55:58.037Z,3.10
2022-09-26T12:56:58.035Z,3.40
2022-09-26T12:57:58.031Z,4.20
2022-09-26T12:58:58.025Z,3.00
2022-09-26T12:59:58.024Z,3.00
2022-09-26T13:00:58.021Z,5.50
2022-09-26T13:01:58.128Z,2.20
2022-09-26T13:02:58.061Z,3.30
2022-09-26T13:03:58.010Z,3.70
2022-09-26T13:04:58.005Z,1.80
2022-09-26T13:05:58.003Z,3.60
2022-09-26T13:07:17.610Z,2.90
2022-09-26T13:07:57.995Z,3.50
2022-09-26T13:08:57.992Z,3.60
2022-09-26T13:09:57.989Z,2.40
2022-09-26T13:10:57.983Z,5.30
2022-09-26T13:11:57.984Z,3.90
2022-09-26T13:12:57.980Z,4.40
2022-09-26T13:13:57.973Z,3.40
2022-09-26T13:14:57.970Z,2.90
2022-09-26T13:15:58.039Z,3.10
2022-09-26T13:16:57.968Z,3.20
2022-09-26T13:17:57.962Z,3.00
2022-09-26T13:18:57.957Z,3.10
2022-09-26T13:19:57.952Z,3.50
2022-09-26T13:20:57.955Z,3.40
2022-09-26T13:21:57.947Z,3.20
2022-09-26T13:22:57.941Z,3.80
2022-09-26T13:23:57.947Z,3.50
2022-09-26T13:24:57.937Z,3.70
2022-09-26T13:25:57.934Z,4.10
2022-09-26T13:26:57.931Z,6.00
2022-09-26T13:27:57.931Z,4.70
2022-09-26T13:29:16.249Z,4.00
2022-09-26T13:29:57.921Z,4.30
2022-09-26T13:30:57.960Z,4.30
2022-09-26T13:31:57.913Z,4.60
2022-09-26T13:32:57.913Z,5.50
2022-09-26T13:33:57.905Z,7.30
2022-09-26T13:34:57.904Z,6.10
2022-09-26T13:35:57.899Z,5.90
2022-09-26T13:36:57.898Z,5.40
2022-09-26T13:38:01.309Z,5.50
2022-09-26T13:38:57.887Z,4.60
2022-09-26T13:39:57.888Z,5.60
2022-09-26T13:40:57.928Z,4.90
2022-09-26T13:41:57.880Z,5.00
2022-09-26T13:43:02.694Z,7.50
2022-09-26T13:43:57.875Z,3.70
2022-09-26T13:44:57.874Z,5.30
2022-09-26T13:45:57.892Z,6.30
2022-09-26T13:46:57.862Z,5.40
2022-09-26T13:47:57.860Z,7.70
2022-09-26T13:48:57.858Z,3.80
2022-09-26T13:49:57.851Z,6.00
2022-09-26T13:50:57.849Z,2.40
2022-09-26T13:51:57.846Z,4.00
2022-09-26T13:52:57.842Z,4.50
2022-09-26T13:53:57.840Z,4.40
2022-09-26T13:54:57.836Z,4.90
2022-09-26T13:55:57.834Z,4.80
2022-09-26T13:56:57.831Z,3.80
2022-09-26T13:57:57.843Z,3.60
2022-09-26T13:58:57.820Z,5.90
2022-09-26T13:59:57.817Z,4.00
2022-09-26T14:00:57.813Z,6.50
2022-09-26T14:01:57.837Z,3.50
2022-09-26T14:03:00.227Z,4.30
2022-09-26T14:03:57.805Z,5.20
2022-09-26T14:04:57.803Z,5.30
2022-09-26T14:05:57.797Z,4.20
2022-09-26T14:06:57.792Z,4.40
2022-09-26T14:07:57.789Z,3.00
2022-09-26T14:08:57.786Z,4.40
2022-09-26T14:09:57.781Z,4.40
2022-09-26T14:10:57.777Z,5.50
2022-09-26T14:11:57.775Z,4.60
2022-09-26T14:12:57.772Z,5.00
2022-09-26T14:13:57.767Z,3.30
2022-09-26T14:14:57.764Z,3.90
2022-09-26T14:15:57.800Z,3.00
2022-09-26T14:16:57.757Z,4.30
2022-09-26T14:17:57.753Z,4.80
2022-09-26T14:18:57.749Z,4.10
2022-09-26T14:19:57.749Z,4.10
2022-09-26T14:20:57.743Z,5.20
2022-09-26T14:21:57.738Z,4.40
2022-09-26T14:22:57.734Z,4.00
2022-09-26T14:23:57.730Z,2.90
2022-09-26T14:24:57.727Z,4.20
2022-09-26T14:25:57.721Z,5.00
2022-09-26T14:26:57.720Z,4.10
2022-09-26T14:27:57.716Z,5.20
2022-09-26T14:28:57.714Z,5.20
2022-09-26T14:29:57.720Z,3.00
2022-09-26T14:30:57.775Z,4.80
2022-09-26T14:31:57.701Z,3.70